Terminal Aerodrome Forecast
Issued by NWS Twin Cities, MN

Home | Current Version | Previous Version | Text Only | Print | Product List | Glossary Off
Versions: 1 2 3 4 5 6 7 8 9 10 11 12 13 14 15 16 17 18

197
FTUS43 KMPX 221740
TAFSTC
TAF
KSTC 221740Z 2218/2318 03012KT P6SM OVC008
     FM222200 05006KT P6SM OVC015
     FM231400 09009G16KT P6SM OVC015=

USA.gov is the U.S. government's official web portal to all federal, state and local government web resources and services.